Time;durP1;ratioP1;P1;durP2;ratioP2;P2;SDS_P1;SDS_P2;PMS_P1;PMS_P2;Temp;Humidity;BMP_temperature;BMP_pressure;BME280_temperature;BME280_humidity;BME280_pressure;Samples;Min_cycle;Max_cycle;Signal;HPM_P1;HPM_P2
2022/12/09 00:00:12;;;;;;;22.73;11.50;;;;;;;-1.44;96.78;99999.91;5035501;28;20210;-76
2022/12/09 00:02:39;;;;;;;26.80;12.50;;;;;;;-1.45;96.99;99994.72;5036903;28;20210;-76
2022/12/09 00:05:06;;;;;;;24.57;11.97;;;;;;;-1.45;96.60;99995.59;5036511;28;20217;-75
2022/12/09 00:07:34;;;;;;;22.40;11.70;;;;;;;-1.44;96.95;100007.75;5031646;28;20218;-75
2022/12/09 00:10:02;;;;;;;28.70;13.80;;;;;;;-1.45;97.61;100010.41;5031466;28;20202;-75
2022/12/09 00:12:28;;;;;;;23.40;12.07;;;;;;;-1.43;97.81;100008.59;5037888;28;20448;-75
2022/12/09 00:14:55;;;;;;;23.83;13.33;;;;;;;-1.43;97.38;100003.34;5034367;28;20584;-76
2022/12/09 00:17:21;;;;;;;22.43;13.00;;;;;;;-1.44;97.81;100001.66;5041578;28;20244;-76
2022/12/09 00:19:48;;;;;;;22.97;12.10;;;;;;;-1.44;98.08;100005.16;5036715;28;20206;-76
2022/12/09 00:22:14;;;;;;;21.70;11.77;;;;;;;-1.44;98.16;100006.91;5033204;28;20210;-75
2022/12/09 00:24:41;;;;;;;26.20;13.27;;;;;;;-1.44;98.23;100005.16;5027477;28;20680;-76
2022/12/09 00:27:09;;;;;;;21.47;12.33;;;;;;;-1.44;98.30;100012.97;5026347;28;20226;-76
2022/12/09 00:29:35;;;;;;;25.70;12.87;;;;;;;-1.44;98.31;100014.72;5023048;28;20214;-76
2022/12/09 00:32:02;;;;;;;24.03;11.60;;;;;;;-1.45;98.86;100015.63;5027113;28;20698;-77
2022/12/09 00:34:28;;;;;;;22.67;11.63;;;;;;;-1.46;98.39;100008.69;5037687;28;20699;-75
2022/12/09 00:36:55;;;;;;;25.57;11.63;;;;;;;-1.49;98.80;100007.00;5036772;28;20300;-74
2022/12/09 00:39:22;;;;;;;18.93;11.37;;;;;;;-1.49;99.14;100008.75;5036642;28;20203;-76
2022/12/09 00:41:50;;;;;;;23.13;12.00;;;;;;;-1.50;99.16;100018.34;5030307;28;20216;-76
2022/12/09 00:44:18;;;;;;;22.57;12.13;;;;;;;-1.51;98.95;100021.84;5025263;28;20703;-76
2022/12/09 00:46:44;;;;;;;25.00;12.90;;;;;;;-1.52;98.87;100025.34;5029216;28;20229;-76
2022/12/09 00:49:11;;;;;;;22.77;11.53;;;;;;;-1.54;98.87;100021.91;5026646;28;20214;-77
2022/12/09 00:51:38;;;;;;;21.83;11.43;;;;;;;-1.55;99.30;100024.56;5032369;28;20206;-76
2022/12/09 00:54:04;;;;;;;22.77;11.87;;;;;;;-1.56;99.04;100025.44;5035428;28;20206;-76
2022/12/09 00:56:31;;;;;;;21.47;11.33;;;;;;;-1.58;98.93;100027.25;5034021;28;20198;-76
2022/12/09 00:58:58;;;;;;;22.07;11.53;;;;;;;-1.60;98.93;100024.66;5025505;28;20202;-76
2022/12/09 01:01:27;;;;;;;21.83;11.60;;;;;;;-1.63;99.14;100023.91;5030798;28;20366;-75
2022/12/09 01:03:53;;;;;;;21.17;11.93;;;;;;;-1.64;98.61;100024.78;5033429;28;20205;-76
2022/12/09 01:06:24;;;;;;;24.57;12.47;;;;;;;-1.67;98.91;100019.63;5026902;28;20222;-77
2022/12/09 01:08:51;;;;;;;22.50;12.03;;;;;;;-1.69;98.83;100026.66;5020627;28;20201;-76
2022/12/09 01:11:20;;;;;;;24.07;12.80;;;;;;;-1.71;98.66;100031.03;5031438;28;20682;-75
2022/12/09 01:13:46;;;;;;;18.13;11.17;;;;;;;-1.74;99.14;100031.97;5030053;28;20202;-76
2022/12/09 01:16:14;;;;;;;25.40;13.43;;;;;;;-1.75;98.92;100032.84;5030111;28;20210;-76
2022/12/09 01:18:42;;;;;;;20.50;11.63;;;;;;;-1.77;98.74;100037.25;5031817;28;20231;-76
2022/12/09 01:21:09;;;;;;;19.97;12.03;;;;;;;-1.80;99.05;100033.00;5033843;28;20198;-77
2022/12/09 01:23:35;;;;;;;22.83;11.97;;;;;;;-1.81;98.54;100033.03;5039145;28;20213;-76
2022/12/09 01:26:03;;;;;;;21.97;11.93;;;;;;;-1.85;98.98;100037.44;5036336;28;20236;-74
2022/12/09 01:28:30;;;;;;;24.20;12.27;;;;;;;-1.86;98.93;100033.13;5036332;28;20225;-75
2022/12/09 01:30:56;;;;;;;22.10;12.10;;;;;;;-1.89;98.98;100027.97;5036252;28;20209;-74
2022/12/09 01:33:22;;;;;;;18.93;10.33;;;;;;;-1.90;98.57;100033.22;5029217;28;20210;-76
2022/12/09 01:35:50;;;;;;;19.77;11.00;;;;;;;-1.93;98.57;100031.53;5034191;28;20208;-76
2022/12/09 01:38:17;;;;;;;21.60;11.53;;;;;;;-1.96;98.52;100034.19;5040102;28;20221;-76
2022/12/09 01:40:45;;;;;;;18.03;10.70;;;;;;;-1.97;98.43;100029.03;5026441;28;20210;-76
2022/12/09 01:43:17;;;;;;;22.00;11.30;;;;;;;-2.01;98.87;100035.22;5036280;28;20206;-76
2022/12/09 01:45:44;;;;;;;21.77;10.30;;;;;;;-2.03;98.59;100035.25;5031174;28;20238;-75
2022/12/09 01:48:12;;;;;;;23.07;11.20;;;;;;;-2.06;98.51;100037.91;5031170;28;20237;-76
2022/12/09 01:50:43;;;;;;;21.00;10.83;;;;;;;-2.08;98.45;100029.25;5032735;28;20786;-75
2022/12/09 01:53:12;;;;;;;21.87;11.13;;;;;;;-2.11;98.34;100032.78;5021195;28;20198;-75
2022/12/09 01:55:39;;;;;;;20.07;10.67;;;;;;;-2.13;98.93;100031.09;5028116;28;20210;-78
2022/12/09 01:58:06;;;;;;;22.47;11.13;;;;;;;-2.15;98.74;100027.69;5031027;28;20229;-77
2022/12/09 02:00:32;;;;;;;22.77;11.20;;;;;;;-2.17;98.61;100019.03;5032736;28;20213;-77
2022/12/09 02:03:00;;;;;;;22.67;11.30;;;;;;;-2.19;98.28;100032.13;5033486;28;20576;-75
2022/12/09 02:05:28;;;;;;;18.80;11.13;;;;;;;-2.23;98.32;100027.84;5025604;28;20349;-75
2022/12/09 02:07:54;;;;;;;21.17;10.83;;;;;;;-2.29;98.18;100019.28;5031919;28;20233;-76
2022/12/09 02:10:22;;;;;;;19.37;10.60;;;;;;;-2.33;98.17;100023.69;5031750;28;20576;-78
2022/12/09 02:13:00;;;;;;;17.30;10.10;;;;;;;-2.35;98.03;100024.66;5029524;28;20559;-76
2022/12/09 02:15:32;;;;;;;23.20;10.33;;;;;;;-2.37;98.78;100024.69;5037336;28;20206;-76
2022/12/09 02:18:01;;;;;;;19.10;10.33;;;;;;;-2.39;98.42;100023.00;5030843;28;20233;-77
2022/12/09 02:20:35;;;;;;;17.60;9.93;;;;;;;-2.41;98.63;100012.59;5034565;28;20198;-77
2022/12/09 02:23:07;;;;;;;18.63;10.70;;;;;;;-2.44;98.41;100012.66;5031992;28;20205;-77
2022/12/09 02:25:42;;;;;;;21.67;11.03;;;;;;;-2.44;98.44;100010.03;5032701;28;20415;-77
2022/12/09 02:28:36;;;;;;;22.00;11.03;;;;;;;-2.48;98.68;100004.03;5028246;28;20224;-76
2022/12/09 02:31:17;;;;;;;22.60;10.33;;;;;;;-2.50;98.19;100008.41;5029354;28;20203;-76
2022/12/09 02:34:01;;;;;;;19.43;10.13;;;;;;;-2.52;98.72;100002.41;5035099;28;20210;-77
2022/12/09 02:36:33;;;;;;;20.23;10.67;;;;;;;-2.53;98.18;100002.41;5040271;28;20201;-76
2022/12/09 02:39:00;;;;;;;20.27;10.03;;;;;;;-2.56;98.13;100002.47;5028332;28;20213;-76
2022/12/09 02:41:30;;;;;;;18.93;10.93;;;;;;;-2.58;98.23;99999.03;5033889;28;20209;-76
2022/12/09 02:44:01;;;;;;;23.37;11.67;;;;;;;-2.60;98.31;99998.22;5034661;28;20206;-77
2022/12/09 02:46:28;;;;;;;19.90;11.37;;;;;;;-2.62;98.08;100000.00;5027125;28;20226;-77
2022/12/09 02:48:58;;;;;;;21.63;10.87;;;;;;;-2.63;98.36;100006.09;5032105;28;20201;-76
2022/12/09 02:51:28;;;;;;;20.90;11.67;;;;;;;-2.65;98.59;99998.28;5028296;28;20231;-77
2022/12/09 02:54:02;;;;;;;21.60;11.57;;;;;;;-2.66;98.17;99993.97;5026157;28;20212;-75
2022/12/09 02:56:29;;;;;;;31.63;14.77;;;;;;;-2.67;98.74;100001.81;5033689;28;20791;-76
2022/12/09 02:58:55;;;;;;;20.80;11.43;;;;;;;-2.68;98.81;99997.50;5038564;28;20201;-77
2022/12/09 03:01:26;;;;;;;20.93;10.33;;;;;;;-2.70;98.49;99999.28;5020663;28;20203;-77
2022/12/09 03:03:54;;;;;;;27.87;11.97;;;;;;;-2.72;98.29;99999.31;5021006;28;20202;-76
2022/12/09 03:06:28;;;;;;;20.57;11.03;;;;;;;-2.75;98.55;99994.16;5027785;28;20226;-76
2022/12/09 03:09:00;;;;;;;19.33;10.27;;;;;;;-2.78;98.96;99995.97;5027497;28;20201;-77
2022/12/09 03:11:28;;;;;;;19.53;10.57;;;;;;;-2.81;98.56;99992.53;5026583;28;20214;-76
2022/12/09 03:14:01;;;;;;;21.33;11.00;;;;;;;-2.83;98.49;99989.09;5035388;28;20193;-76
2022/12/09 03:16:33;;;;;;;23.63;11.10;;;;;;;-2.83;98.76;99991.69;5038921;28;20316;-75
2022/12/09 03:19:03;;;;;;;27.00;11.93;;;;;;;-2.85;98.58;99982.19;5046412;22;20233;-83
2022/12/09 03:21:34;;;;;;;21.53;10.50;;;;;;;-2.87;99.14;99979.66;5053035;28;20198;-82
2022/12/09 03:24:02;;;;;;;20.53;10.73;;;;;;;-2.88;98.81;99975.31;5044825;28;20218;-84
2022/12/09 03:26:32;;;;;;;21.53;11.00;;;;;;;-2.88;99.48;99977.94;5036927;28;20244;-83
2022/12/09 03:29:01;;;;;;;23.63;11.80;;;;;;;-2.90;99.60;99984.91;5042128;28;20206;-83
2022/12/09 03:31:30;;;;;;;21.47;10.87;;;;;;;-2.90;99.25;99986.66;5043163;28;20205;-82
2022/12/09 03:34:01;;;;;;;19.73;10.07;;;;;;;-2.92;99.13;99981.47;5039928;28;20205;-80
2022/12/09 03:36:33;;;;;;;20.23;10.87;;;;;;;-2.93;99.50;99989.31;5047178;28;20649;-82
2022/12/09 03:39:01;;;;;;;21.23;10.87;;;;;;;-2.95;99.39;99981.53;5044179;28;20206;-83
2022/12/09 03:41:30;;;;;;;19.60;10.00;;;;;;;-2.96;99.71;99979.81;5047177;28;20202;-82
2022/12/09 03:44:03;;;;;;;18.83;10.10;;;;;;;-2.96;99.44;99990.22;5042270;28;20212;-81
2022/12/09 03:46:30;;;;;;;22.90;10.70;;;;;;;-2.99;99.51;99987.69;5050464;28;20252;-81
2022/12/09 03:48:57;;;;;;;21.23;10.70;;;;;;;-2.99;99.38;99985.06;5042879;28;20704;-81
2022/12/09 03:51:28;;;;;;;16.93;10.63;;;;;;;-3.00;99.51;99988.56;5049047;28;20202;-85
2022/12/09 03:54:00;;;;;;;18.23;9.70;;;;;;;-3.01;99.79;99979.03;5043346;28;20194;-81
2022/12/09 03:56:30;;;;;;;17.87;9.77;;;;;;;-3.03;99.87;99988.63;5052538;28;20765;-83
2022/12/09 03:59:01;;;;;;;18.23;9.83;;;;;;;-3.03;99.63;99975.59;5045394;28;20205;-83
2022/12/09 04:01:29;;;;;;;16.77;9.83;;;;;;;-3.05;99.42;99974.78;5049502;28;20201;-82
2022/12/09 04:03:57;;;;;;;16.47;9.57;;;;;;;-3.07;99.95;99976.56;5034809;28;20222;-83
2022/12/09 04:06:23;;;;;;;19.13;9.60;;;;;;;-3.08;99.85;99972.25;5046062;28;20233;-83
2022/12/09 04:08:50;;;;;;;24.37;12.63;;;;;;;-3.09;99.84;99970.50;5048040;28;20203;-83
2022/12/09 04:11:18;;;;;;;27.53;14.13;;;;;;;-3.11;99.43;99964.47;5054742;28;20198;-83
2022/12/09 04:13:45;;;;;;;25.43;11.63;;;;;;;-3.11;99.88;99959.25;5042126;28;20210;-83
2022/12/09 04:16:11;;;;;;;18.17;9.63;;;;;;;-3.11;99.66;99961.00;5064221;28;20202;-82
2022/12/09 04:18:38;;;;;;;17.10;8.83;;;;;;;-3.12;100.00;99957.53;5048971;28;20244;-81
2022/12/09 04:21:06;;;;;;;19.53;9.90;;;;;;;-3.14;99.59;99959.31;5043936;28;20229;-81
2022/12/09 04:23:33;;;;;;;18.07;9.60;;;;;;;-3.15;100.00;99957.59;5047901;28;20580;-80
2022/12/09 04:25:59;;;;;;;17.57;9.47;;;;;;;-3.17;100.00;99968.03;5047503;28;20228;-82
2022/12/09 04:28:27;;;;;;;16.80;9.20;;;;;;;-3.18;99.75;99958.50;5051260;28;20240;-82
2022/12/09 04:30:53;;;;;;;18.43;9.70;;;;;;;-3.19;99.73;99954.19;5047705;28;20212;-81
2022/12/09 04:33:20;;;;;;;20.57;10.43;;;;;;;-3.18;99.65;99953.31;5051618;28;20209;-81
2022/12/09 04:35:46;;;;;;;19.23;9.70;;;;;;;-3.17;99.68;99961.97;5042013;28;20209;-82
2022/12/09 04:38:13;;;;;;;16.17;8.33;;;;;;;-3.19;99.80;99955.94;5051914;28;20267;-82
2022/12/09 04:40:40;;;;;;;15.87;8.53;;;;;;;-3.20;99.95;99949.00;5049421;28;20210;-81
2022/12/09 04:43:06;;;;;;;16.60;8.77;;;;;;;-3.22;100.00;99953.38;5054579;28;20212;-82
2022/12/09 04:45:34;;;;;;;15.90;8.80;;;;;;;-3.22;100.00;99950.78;5048877;28;20206;-81
2022/12/09 04:48:01;;;;;;;15.73;8.83;;;;;;;-3.23;100.00;99959.50;5050932;28;20257;-81
2022/12/09 04:50:27;;;;;;;16.53;9.60;;;;;;;-3.26;100.00;99954.34;5054140;28;20660;-80
2022/12/09 04:52:54;;;;;;;18.43;9.77;;;;;;;-3.27;100.00;99963.03;5048732;28;20221;-81
2022/12/09 04:55:20;;;;;;;15.23;8.63;;;;;;;-3.30;100.00;99957.88;5047449;28;20205;-81
2022/12/09 04:57:47;;;;;;;17.97;9.70;;;;;;;-3.32;100.00;99964.88;5058985;28;20332;-81
2022/12/09 05:00:14;;;;;;;15.80;8.47;;;;;;;-3.34;100.00;99967.50;5054656;28;20602;-81
2022/12/09 05:02:42;;;;;;;17.83;9.20;;;;;;;-3.36;100.00;99961.44;5054431;28;20205;-80
2022/12/09 05:05:10;;;;;;;19.20;9.50;;;;;;;-3.35;100.00;99964.91;5049372;28;20202;-80
2022/12/09 05:07:36;;;;;;;22.73;9.80;;;;;;;-3.35;100.00;99968.38;5044348;28;20238;-81
2022/12/09 05:10:03;;;;;;;19.20;10.10;;;;;;;-3.35;100.00;99957.09;5050386;28;20205;-82
2022/12/09 05:12:29;;;;;;;18.07;9.70;;;;;;;-3.34;100.00;99956.22;5052462;28;20202;-82
2022/12/09 05:14:57;;;;;;;16.33;8.40;;;;;;;-3.34;100.00;99956.22;5043403;28;20206;-82
2022/12/09 05:17:24;;;;;;;17.17;9.63;;;;;;;-3.33;100.00;99956.19;5046203;28;20237;-83
2022/12/09 05:19:52;;;;;;;14.40;8.70;;;;;;;-3.34;100.00;99962.28;5042350;28;20667;-82
2022/12/09 05:22:19;;;;;;;18.97;9.87;;;;;;;-3.36;100.00;99956.25;5049012;28;20213;-83
2022/12/09 05:24:46;;;;;;;19.97;8.73;;;;;;;-3.37;100.00;99961.47;5052401;28;20206;-80
2022/12/09 05:27:14;;;;;;;17.43;9.87;;;;;;;-3.39;100.00;99965.84;5053635;28;20225;-81
2022/12/09 05:29:41;;;;;;;15.43;8.70;;;;;;;-3.40;100.00;99961.56;5061288;28;20296;-82
2022/12/09 05:32:07;;;;;;;20.10;9.33;;;;;;;-3.41;100.00;99959.84;5048397;28;20588;-81
2022/12/09 05:34:34;;;;;;;15.43;8.70;;;;;;;-3.42;100.00;99958.97;5051104;28;20216;-82
2022/12/09 05:37:02;;;;;;;17.43;9.27;;;;;;;-3.43;100.00;99957.25;5052519;28;20218;-82
2022/12/09 05:39:28;;;;;;;15.93;9.37;;;;;;;-3.43;100.00;99953.78;5052049;28;20218;-82
2022/12/09 05:41:55;;;;;;;16.80;9.33;;;;;;;-3.43;100.00;99961.59;5054902;28;20205;-80
2022/12/09 05:44:21;;;;;;;17.27;9.10;;;;;;;-3.44;100.00;99962.50;5045020;28;20209;-81
2022/12/09 05:46:48;;;;;;;16.07;8.40;;;;;;;-3.43;100.00;99953.78;5046185;28;20233;-81
2022/12/09 05:49:14;;;;;;;15.77;8.83;;;;;;;-3.44;100.00;99960.75;5051342;28;20201;-80
2022/12/09 05:51:41;;;;;;;16.70;9.40;;;;;;;-3.44;100.00;99955.53;5054106;28;20213;-80
2022/12/09 05:54:09;;;;;;;15.67;8.23;;;;;;;-3.44;100.00;99962.50;5050574;28;20202;-80
2022/12/09 05:56:36;;;;;;;14.40;8.47;;;;;;;-3.44;100.00;99965.09;5048209;28;20232;-82
2022/12/09 05:59:03;;;;;;;14.20;8.67;;;;;;;-3.45;100.00;99956.41;5046266;28;20217;-80
2022/12/09 06:01:29;;;;;;;16.07;9.00;;;;;;;-3.47;100.00;99947.78;5049449;28;20939;-81
2022/12/09 06:03:56;;;;;;;15.60;9.67;;;;;;;-3.46;100.00;99959.06;5049034;28;20660;-81
2022/12/09 06:06:26;;;;;;;16.23;9.00;;;;;;;-3.49;100.00;99952.16;5046733;28;20550;-81
2022/12/09 06:08:56;;;;;;;17.03;9.20;;;;;;;-3.47;100.00;99954.72;5046200;28;20225;-82
2022/12/09 06:11:24;;;;;;;15.93;8.90;;;;;;;-3.50;100.00;99955.63;5059712;28;20242;-82
2022/12/09 06:13:50;;;;;;;14.40;7.80;;;;;;;-3.53;100.00;99951.34;5049560;28;20704;-80
2022/12/09 06:16:19;;;;;;;19.63;9.93;;;;;;;-3.54;100.00;99946.16;5051624;28;20205;-83
2022/12/09 06:18:45;;;;;;;16.20;10.03;;;;;;;-3.55;100.00;99954.84;5052093;28;20209;-81
2022/12/09 06:21:14;;;;;;;19.57;10.43;;;;;;;-3.55;100.00;99963.50;5052917;28;20208;-82
2022/12/09 06:23:41;;;;;;;20.70;11.07;;;;;;;-3.56;100.00;99961.78;5052411;28;20216;-81
2022/12/09 06:26:15;;;;;;;15.97;8.97;;;;;;;-3.56;100.00;99956.59;5051123;28;20683;-82
2022/12/09 06:28:43;;;;;;;19.13;9.33;;;;;;;-3.55;100.00;99958.31;5048636;28;20232;-82
2022/12/09 06:31:09;;;;;;;15.10;9.37;;;;;;;-3.54;100.00;99954.81;5042985;28;20233;-81
2022/12/09 06:33:36;;;;;;;16.83;9.27;;;;;;;-3.52;100.00;99958.25;5046515;28;20725;-81
2022/12/09 06:36:04;;;;;;;20.10;10.83;;;;;;;-3.48;100.00;99958.22;5050390;28;20202;-82
2022/12/09 06:38:30;;;;;;;21.97;10.30;;;;;;;-3.45;100.00;99959.03;5036395;28;20201;-83
2022/12/09 06:40:57;;;;;;;15.53;9.70;;;;;;;-3.43;100.00;99956.41;5043859;28;20202;-84
2022/12/09 06:43:24;;;;;;;18.50;9.77;;;;;;;-3.40;100.00;99948.53;5054355;28;20218;-83
2022/12/09 06:45:51;;;;;;;19.57;9.50;;;;;;;-3.36;100.00;99953.63;5044020;28;20206;-83
2022/12/09 06:48:18;;;;;;;18.37;10.00;;;;;;;-3.30;100.00;99942.25;5044624;28;20231;-83
2022/12/09 06:50:45;;;;;;;20.33;10.17;;;;;;;-3.28;100.00;99946.56;5047296;28;20206;-82
2022/12/09 06:53:11;;;;;;;16.90;9.77;;;;;;;-3.25;100.00;99943.03;5043883;28;20206;-83
2022/12/09 06:55:38;;;;;;;19.17;10.43;;;;;;;-3.21;100.00;99948.16;5045843;28;20213;-83
2022/12/09 06:58:04;;;;;;;18.30;10.03;;;;;;;-3.18;100.00;99952.44;5048996;28;20312;-82
2022/12/09 07:00:31;;;;;;;20.07;9.87;;;;;;;-3.15;100.00;99963.66;5048620;28;20197;-80
2022/12/09 07:02:59;;;;;;;17.97;9.73;;;;;;;-3.12;100.00;99944.53;5050769;28;20226;-82
2022/12/09 07:05:26;;;;;;;18.83;10.50;;;;;;;-3.08;100.00;99947.94;5047688;28;20384;-83
2022/12/09 07:07:53;;;;;;;19.67;10.80;;;;;;;-3.05;100.00;99947.88;5049429;28;20230;-82
2022/12/09 07:10:20;;;;;;;16.70;10.47;;;;;;;-3.02;100.00;99948.66;5047084;28;20206;-82
2022/12/09 07:12:46;;;;;;;19.87;10.07;;;;;;;-3.00;100.00;99946.88;5049727;28;20221;-81
2022/12/09 07:15:13;;;;;;;23.27;11.17;;;;;;;-2.96;100.00;99956.38;5044611;28;20659;-84
2022/12/09 07:17:40;;;;;;;20.23;10.17;;;;;;;-2.93;100.00;99956.31;5048319;28;20230;-84
2022/12/09 07:20:09;;;;;;;21.43;10.27;;;;;;;-2.89;100.00;99955.38;5050886;28;20209;-83
2022/12/09 07:22:35;;;;;;;21.07;11.43;;;;;;;-2.85;100.00;99954.38;5048242;28;20213;-83
2022/12/09 07:25:02;;;;;;;20.13;11.10;;;;;;;-2.83;100.00;99955.22;5047657;28;20206;-85
2022/12/09 07:27:28;;;;;;;25.33;11.43;;;;;;;-2.79;100.00;99961.22;5050094;28;20684;-83
2022/12/09 07:29:56;;;;;;;20.67;10.83;;;;;;;-2.76;100.00;99960.31;5050043;28;20211;-83
2022/12/09 07:32:22;;;;;;;21.67;11.47;;;;;;;-2.73;100.00;99962.88;5045505;28;20209;-84
2022/12/09 07:34:49;;;;;;;24.27;11.30;;;;;;;-2.71;100.00;99963.69;5047587;28;20687;-85
2022/12/09 07:37:17;;;;;;;22.00;11.67;;;;;;;-2.68;100.00;99961.00;5046173;28;20222;-85
2022/12/09 07:39:43;;;;;;;20.40;11.77;;;;;;;-2.66;100.00;99957.47;5045138;28;20205;-84
2022/12/09 07:42:10;;;;;;;20.93;11.57;;;;;;;-2.63;100.00;99964.38;5047833;28;20209;-84
2022/12/09 07:44:36;;;;;;;22.27;11.30;;;;;;;-2.59;100.00;99959.06;5049750;28;20210;-85
2022/12/09 07:47:03;;;;;;;24.37;11.80;;;;;;;-2.56;100.00;99966.84;5050768;28;20225;-84
2022/12/09 07:49:29;;;;;;;21.70;11.27;;;;;;;-2.54;100.00;99961.59;5051458;28;20202;-85
2022/12/09 07:51:56;;;;;;;22.03;12.20;;;;;;;-2.50;100.00;99973.66;5044850;28;20202;-84
2022/12/09 07:54:23;;;;;;;23.53;11.83;;;;;;;-2.48;100.00;99975.34;5052229;28;20216;-84
2022/12/09 07:56:50;;;;;;;21.83;11.60;;;;;;;-2.45;100.00;99964.84;5052804;28;20219;-84
2022/12/09 07:59:17;;;;;;;22.07;11.47;;;;;;;-2.39;100.00;99976.06;5051706;28;20727;-84
2022/12/09 08:01:45;;;;;;;25.60;12.53;;;;;;;-2.38;100.00;99976.03;5055350;28;20396;-84
2022/12/09 08:04:11;;;;;;;27.00;12.97;;;;;;;-2.34;100.00;99974.22;5047441;28;20203;-84
2022/12/09 08:06:38;;;;;;;25.13;13.17;;;;;;;-2.31;100.00;99964.53;5055597;28;20237;-84
2022/12/09 08:09:08;;;;;;;25.20;12.40;;;;;;;-2.27;100.00;99976.63;5046661;28;20233;-84
2022/12/09 08:11:36;;;;;;;25.97;13.27;;;;;;;-2.24;100.00;99976.56;5053196;28;20229;-83
2022/12/09 08:14:04;;;;;;;22.97;12.47;;;;;;;-2.19;100.00;99972.13;5054071;28;20198;-84
2022/12/09 08:16:31;;;;;;;28.43;12.60;;;;;;;-2.16;100.00;99974.66;5051106;28;20234;-83
2022/12/09 08:18:57;;;;;;;22.57;12.63;;;;;;;-2.14;100.00;99978.06;5050305;28;20209;-85
2022/12/09 08:21:26;;;;;;;23.70;12.90;;;;;;;-2.09;100.00;99975.38;5044749;28;20211;-84
2022/12/09 08:23:54;;;;;;;28.23;13.57;;;;;;;-2.07;100.00;99978.81;5048514;28;20201;-84
2022/12/09 08:26:23;;;;;;;27.47;12.93;;;;;;;-2.03;100.00;99971.75;5044977;28;20653;-83
2022/12/09 08:28:51;;;;;;;27.97;13.60;;;;;;;-1.99;100.00;99978.63;5051702;28;20232;-84
2022/12/09 08:31:20;;;;;;;21.60;11.70;;;;;;;-1.97;100.00;99982.06;5047162;28;20210;-84
2022/12/09 08:33:47;;;;;;;22.23;11.97;;;;;;;-1.93;100.00;99984.56;5042677;28;20210;-85
2022/12/09 08:36:15;;;;;;;23.43;12.40;;;;;;;-1.89;100.00;99991.44;5050962;28;20290;-84
2022/12/09 08:38:42;;;;;;;26.00;12.43;;;;;;;-1.82;100.00;99979.09;5051184;28;20205;-84
2022/12/09 08:41:10;;;;;;;25.27;12.83;;;;;;;-1.78;100.00;99992.03;5042897;28;20205;-85
2022/12/09 08:43:38;;;;;;;25.27;11.87;;;;;;;-1.73;100.00;99989.31;5048207;28;20218;-85
2022/12/09 08:46:06;;;;;;;26.37;12.70;;;;;;;-1.69;100.00;99975.28;5047214;28;20671;-84
2022/12/09 08:48:36;;;;;;;25.73;12.40;;;;;;;-1.63;100.00;99969.94;5045836;28;20230;-85
2022/12/09 08:51:02;;;;;;;24.33;11.87;;;;;;;-1.57;100.00;99969.75;5044398;28;20758;-84
2022/12/09 08:53:29;;;;;;;24.93;12.53;;;;;;;-1.50;100.00;99970.47;5047790;28;20213;-84
2022/12/09 08:55:55;;;;;;;27.60;13.10;;;;;;;-1.45;100.00;99973.84;5048987;28;20563;-84
2022/12/09 08:58:24;;;;;;;27.10;13.73;;;;;;;-1.42;100.00;99966.75;5047196;28;20214;-83
2022/12/09 09:00:50;;;;;;;22.30;12.10;;;;;;;-1.36;100.00;99968.38;5046520;28;20294;-83
2022/12/09 09:03:18;;;;;;;29.23;13.63;;;;;;;-1.33;100.00;99970.03;5045815;28;20209;-83
2022/12/09 09:05:46;;;;;;;24.23;12.67;;;;;;;-1.30;100.00;99978.66;5047545;28;20202;-83
2022/12/09 09:08:13;;;;;;;23.60;12.43;;;;;;;-1.27;100.00;99972.50;5043527;28;21665;-84
2022/12/09 09:10:39;;;;;;;24.77;12.33;;;;;;;-1.22;100.00;99975.84;5041869;28;20206;-83
2022/12/09 09:13:06;;;;;;;25.47;12.57;;;;;;;-1.21;100.00;99980.16;5043631;28;20206;-83
2022/12/09 09:15:32;;;;;;;22.40;11.80;;;;;;;-1.17;100.00;99982.66;5041898;28;20210;-84
2022/12/09 09:17:59;;;;;;;24.37;12.63;;;;;;;-1.14;100.00;99981.72;5046478;28;20233;-83
2022/12/09 09:20:27;;;;;;;25.20;12.90;;;;;;;-1.12;100.00;99982.56;5047779;28;20197;-83
2022/12/09 09:22:53;;;;;;;25.97;13.03;;;;;;;-1.10;100.00;99980.75;5043522;28;20324;-84
2022/12/09 09:25:20;;;;;;;26.00;13.47;;;;;;;-1.06;100.00;99979.75;5046162;28;20210;-84
2022/12/09 09:27:46;;;;;;;25.23;13.10;;;;;;;-1.02;100.00;99984.00;5044408;28;20225;-83
2022/12/09 09:30:14;;;;;;;28.40;13.33;;;;;;;-0.98;100.00;99977.81;5046177;28;20207;-82
2022/12/09 09:32:40;;;;;;;23.33;13.27;;;;;;;-0.93;100.00;99988.16;5041748;28;20235;-82
2022/12/09 09:35:07;;;;;;;24.33;12.37;;;;;;;-0.90;100.00;99985.47;5045484;28;20197;-83
2022/12/09 09:37:35;;;;;;;25.37;13.33;;;;;;;-0.87;100.00;99982.72;5043872;28;20230;-84
2022/12/09 09:40:02;;;;;;;25.33;12.80;;;;;;;-0.84;100.00;99988.75;5040793;28;20202;-83
2022/12/09 09:42:35;;;;;;;23.23;12.90;;;;;;;-0.79;100.00;99988.63;5046539;28;20226;-83
2022/12/09 09:45:06;;;;;;;27.17;13.30;;;;;;;-0.76;100.00;99978.94;5041873;28;20199;-82
2022/12/09 09:47:37;;;;;;;28.17;14.33;;;;;;;-0.74;100.00;99979.75;5046479;28;20356;-82
2022/12/09 09:50:09;;;;;;;30.40;14.70;;;;;;;-0.70;100.00;99985.72;5041186;28;20228;-82
2022/12/09 09:52:41;;;;;;;30.40;13.70;;;;;;;-0.67;100.00;99980.41;5041001;28;20218;-83
2022/12/09 09:55:14;;;;;;;28.50;13.87;;;;;;;-0.63;100.00;99989.03;5045358;28;20461;-82
2022/12/09 09:57:49;;;;;;;26.60;14.03;;;;;;;-0.59;100.00;99990.69;5046040;28;20218;-82
2022/12/09 10:00:21;;;;;;;24.80;13.30;;;;;;;-0.55;100.00;99987.94;5038355;28;20194;-82
2022/12/09 10:02:58;;;;;;;27.00;13.83;;;;;;;-0.51;100.00;99983.44;5038430;28;20244;-82
2022/12/09 10:05:29;;;;;;;29.60;14.43;;;;;;;-0.46;100.00;99984.19;5039902;28;20275;-83
2022/12/09 10:08:12;;;;;;;29.50;14.53;;;;;;;-0.43;100.00;99978.88;5037458;28;20245;-83
2022/12/09 10:10:46;;;;;;;28.53;14.60;;;;;;;-0.38;100.00;99977.00;5043432;28;20213;-82
2022/12/09 10:13:23;;;;;;;26.73;12.90;;;;;;;-0.33;100.00;99968.97;5043730;28;20203;-83
2022/12/09 10:15:58;;;;;;;25.10;13.87;;;;;;;-0.30;100.00;99974.97;5039848;28;20204;-83
2022/12/09 10:18:28;;;;;;;30.77;14.00;;;;;;;-0.25;100.00;99967.00;5044250;28;20244;-83
2022/12/09 10:20:55;;;;;;;28.90;14.03;;;;;;;-0.21;100.00;99973.88;5046175;28;20837;-83
2022/12/09 10:23:23;;;;;;;29.17;13.83;;;;;;;-0.18;100.00;99979.84;5047334;28;20213;-82
2022/12/09 10:25:53;;;;;;;26.03;13.67;;;;;;;-0.15;100.00;99977.13;5044780;28;20205;-83
2022/12/09 10:28:22;;;;;;;25.77;13.97;;;;;;;-0.13;100.00;99975.31;5044917;28;20233;-83
2022/12/09 10:30:50;;;;;;;25.17;13.60;;;;;;;-0.10;100.00;99975.25;5045141;28;20208;-83
2022/12/09 10:33:27;;;;;;;26.90;13.93;;;;;;;-0.08;100.00;99968.19;5040987;28;20208;-83
2022/12/09 10:35:53;;;;;;;26.33;14.13;;;;;;;-0.06;100.00;99963.78;5042271;28;20197;-82
2022/12/09 10:38:21;;;;;;;27.17;13.70;;;;;;;-0.03;100.00;99963.69;5041838;28;20222;-83
2022/12/09 10:40:59;;;;;;;27.60;14.43;;;;;;;0.00;100.00;99958.34;5042379;28;20270;-83
2022/12/09 10:43:40;;;;;;;27.33;14.30;;;;;;;0.04;100.00;99964.34;5046370;28;20205;-83
2022/12/09 10:46:11;;;;;;;34.13;14.40;;;;;;;0.08;100.00;99970.34;5045271;28;20206;-82
2022/12/09 10:48:43;;;;;;;29.37;14.63;;;;;;;0.09;100.00;99962.44;5047260;28;20229;-82
2022/12/09 10:51:13;;;;;;;22.20;12.77;;;;;;;0.13;100.00;99968.44;5048118;28;20212;-82
2022/12/09 10:53:47;;;;;;;28.03;14.13;;;;;;;0.15;100.00;99966.63;5041579;28;20209;-82
2022/12/09 10:56:20;;;;;;;22.43;13.33;;;;;;;0.16;100.00;99965.72;5042692;28;20199;-83
2022/12/09 10:58:47;;;;;;;24.13;13.67;;;;;;;0.18;100.00;99956.06;5042656;28;20202;-83
2022/12/09 11:01:15;;;;;;;27.30;14.30;;;;;;;0.19;100.00;99958.59;5047771;28;20237;-84
2022/12/09 11:03:53;;;;;;;24.97;13.53;;;;;;;0.22;100.00;99957.66;5042007;28;20271;-84
2022/12/09 11:06:28;;;;;;;23.17;13.83;;;;;;;0.23;100.00;99959.38;5048045;28;20220;-82
2022/12/09 11:08:59;;;;;;;28.30;14.73;;;;;;;0.24;100.00;99961.09;5043929;28;20216;-81
2022/12/09 11:11:41;;;;;;;25.50;13.30;;;;;;;0.26;100.00;99956.66;5048102;28;20892;-82
2022/12/09 11:14:21;;;;;;;27.37;14.73;;;;;;;0.28;100.00;99960.09;5038798;28;20631;-81
2022/12/09 11:16:48;;;;;;;29.40;15.30;;;;;;;0.30;100.00;99955.66;5040155;28;20244;-83